EDVEEDLP

Guest
Details From EDVE - Braunschweig
To EDLP - Paderborn Lippstadt
Flight Number -
Tags Generated
Created
Modified
Stats Distance 84 nm / 155 km
Max Altitude 0 ft / 0 m
Waypoints 2
Social Downloads 1
Likes 0
Share VATSIM

Download

Looking for another format? Having issues loading an existing format? Contact us
Advertisement - Login to hide

Notes

Generated

Route

EDVE EDLP

ID Type Via Altitude Latitude Longitude Leg Dist Tot Dist Heading (true) Name
O EDVE APT - 0 ft / 0 m 52.31741˚ 10.54852˚ - 0 nm - Braunschweig-Wolfsburg
O EDLP APT - 0 ft / 0 m 51.60888˚ 8.60309˚ 83 nm 83 nm 240° / 239° -

Altitude Profile

Advertisement - Login to hide

EDVE

Details ICAO EDVE (BWE)
Name Braunschweig-Wolfsburg
Region Germany - Civil
Timezone Europe/Berlin (UTC+1.0)
Stats Elevation 295 ft / 90 m (AMSL)
Location 52.318435° 10.554742°
Runways 2
Magnetic Variation 2.941° E

METAR

EDVE 181450Z 25004KT 220V290 9999 OVC023 03/01 Q1025

Decode

TAF

Not found

Departure Runways

ID Width Length Bearing (true) Bearing (mag) Surface Threshold Offset Overrun Length
08 98 ft / 30 m 5,496 ft / 1,675 m 84.98° 82.04° Asphalt 984 ft / 300 m 0 ft / 0 m
08R 98 ft / 30 m 2,950 ft / 899 m 84.56° 81.62° Grass 0 ft / 0 m 0 ft / 0 m
26 98 ft / 30 m 5,496 ft / 1,675 m 265.00° 262.06° Asphalt 591 ft / 180 m 190 ft / 58 m
26L 98 ft / 30 m 2,950 ft / 899 m 264.57° 261.63° Grass 0 ft / 0 m 0 ft / 0 m

EDLP

Details ICAO EDLP (PAD)
Name Paderborn Lippstadt
Region Germany - Civil
Timezone Europe/Berlin (UTC+1.0)
Stats Elevation 699 ft / 213 m (AMSL)
Location 51.614166° 8.616336°
Runways 1
Magnetic Variation 2.358° E

METAR

EDLP 181450Z 13006KT 9999 BKN021 02/M00 Q1024

Decode

TAF

TAF EDLP 181100Z 1812/1912 VRB03KT 9999 BKN025 BECMG 1818/1821 BKN012 TEMPO 1821/1824 4000 BR BKN006 BECMG 1900/1903 27005KT 2500 BR BKN004 PROB30 TEMPO 1905/1911 0500 FG BKN001

Decode

Destination Runways

ID Width Length Bearing (true) Bearing (mag) Surface Threshold Offset Overrun Length
06 148 ft / 45 m 7,136 ft / 2,175 m 57.28° 54.92° Asphalt 0 ft / 0 m 1,066 ft / 325 m
24 148 ft / 45 m 7,136 ft / 2,175 m 237.30° 234.94° Asphalt 0 ft / 0 m 397 ft / 121 m

Approach Navaids

Runway Type Ident Frequency Range Bearing (true) Bearing (mag) Slope Elevation
06 Localiser IPLE 111.70 MHz 18 nm / 33 km 57.13° 54.77° - 674 ft / 205 m (AMSL)
06 Glidescope IPLE 111.70 MHz 10 nm / 19 km 57.29° 54.93° 3.00° 699 ft / 213 m (AMSL)
24 Localiser IPLW 108.55 MHz 18 nm / 33 km 236.80° 234.44° - 699 ft / 213 m (AMSL)
24 Glidescope IPLW 108.55 MHz 10 nm / 19 km 237.29° 234.93° 3.00° 674 ft / 205 m (AMSL)